LOAU weather

Stockerau Airport
Stockerau, Lower Austria, Austria

Public forecast

Using degrees Celsius for public forecast. Weather courtesy of forecast.io.

Closest aviation weather report (METAR) to Stockerau Airport

Closest report is Brumowski Air Base, 6.4 nm (11.8 km) SSW. Retrieved 2020/06/04 11:50 UTC (26 minutes ago):

LOXT 041150Z 08008KT 50KM FEW040CU SCT080AC BKN280CI 24/13 Q0997 NOSIG RMK WIND INFO EST/BKN

Closest aviation forecast (TAF) to Stockerau Airport

Forecast is more than 12 hours old.

Closest forecast is Brumowski Air Base, 6.4 nm (11.8 km) SSW. Retrieved 2010/04/07 08:00 UTC (10 years ago):

TAF LOXT 070800Z 0709/0918 VRB03KT 9999 SKC BECMG 0710/0712 05005KT FEW040